createdAt,value
2019-01-09T00:03:00.240Z,3.1
2019-01-09T00:08:00.230Z,3
2019-01-09T00:13:00.247Z,3
2019-01-09T00:18:00.243Z,3
2019-01-09T00:23:00.231Z,3
2019-01-09T00:28:00.222Z,3
2019-01-09T00:33:00.241Z,2.9
2019-01-09T00:38:00.227Z,2.8
2019-01-09T00:43:00.244Z,2.8
2019-01-09T00:48:00.255Z,2.8
2019-01-09T00:53:00.262Z,2.8
2019-01-09T00:58:00.240Z,2.8
2019-01-09T01:03:00.256Z,2.8
2019-01-09T01:08:00.245Z,2.9
2019-01-09T01:13:00.258Z,2.9
2019-01-09T01:18:00.266Z,2.9
2019-01-09T01:23:00.276Z,2.8
2019-01-09T01:28:00.244Z,2.8
2019-01-09T01:33:00.255Z,2.8
2019-01-09T01:38:00.268Z,2.8
2019-01-09T01:43:00.279Z,2.8
2019-01-09T01:48:00.292Z,2.8
2019-01-09T01:53:00.285Z,2.8
2019-01-09T01:58:00.262Z,2.7
2019-01-09T02:03:00.291Z,2.7
2019-01-09T02:08:00.289Z,2.7
2019-01-09T02:13:00.291Z,2.7
2019-01-09T02:18:00.295Z,2.7
2019-01-09T02:23:00.304Z,2.7
2019-01-09T02:28:00.303Z,2.7
2019-01-09T02:33:00.303Z,2.7
2019-01-09T02:38:00.298Z,2.7
2019-01-09T02:43:00.291Z,2.7
2019-01-09T02:48:00.312Z,2.7
2019-01-09T02:53:00.304Z,2.7
2019-01-09T02:58:00.304Z,2.7
2019-01-09T03:03:00.315Z,2.7
2019-01-09T03:08:00.317Z,2.7
2019-01-09T03:13:00.336Z,2.7
2019-01-09T03:18:00.282Z,2.7
2019-01-09T03:23:00.291Z,2.7
2019-01-09T03:28:00.344Z,2.7
2019-01-09T03:33:00.458Z,2.7
2019-01-09T03:38:00.323Z,2.7
2019-01-09T03:43:00.346Z,2.7
2019-01-09T03:48:00.346Z,2.7
2019-01-09T03:53:00.489Z,2.7
2019-01-09T03:58:00.416Z,2.7
2019-01-09T04:03:00.353Z,2.8
2019-01-09T04:08:00.369Z,2.8
2019-01-09T04:13:03.559Z,2.8
2019-01-09T04:18:01.571Z,2.6
2019-01-09T04:23:00.350Z,2.6
2019-01-09T04:28:00.352Z,2.6
2019-01-09T04:33:00.362Z,2.5
2019-01-09T04:38:00.364Z,2.4
2019-01-09T04:43:01.409Z,2.3
2019-01-09T04:48:00.336Z,2.3
2019-01-09T04:53:00.494Z,2.2
2019-01-09T04:58:00.363Z,2.3
2019-01-09T05:03:00.390Z,2.1
2019-01-09T05:08:00.467Z,2.2
2019-01-09T05:13:00.386Z,2.1
2019-01-09T05:18:00.510Z,1.9
2019-01-09T05:23:00.390Z,1.9
2019-01-09T05:28:00.400Z,2
2019-01-09T05:33:00.383Z,2
2019-01-09T05:38:00.717Z,2
2019-01-09T05:43:00.389Z,2
2019-01-09T05:48:00.393Z,2.1
2019-01-09T05:53:00.419Z,2.1
2019-01-09T05:58:00.408Z,2.2
2019-01-09T06:03:00.410Z,2.2
2019-01-09T06:08:00.408Z,2.2
2019-01-09T06:13:00.418Z,2.2
2019-01-09T06:18:00.418Z,2.2
2019-01-09T06:23:00.433Z,2.2
2019-01-09T06:28:00.421Z,2.1
2019-01-09T06:33:00.440Z,2
2019-01-09T06:38:00.439Z,1.9
2019-01-09T06:43:00.551Z,1.9
2019-01-09T06:48:00.439Z,1.9
2019-01-09T06:53:00.440Z,1.9
2019-01-09T06:58:00.483Z,2
2019-01-09T07:03:00.456Z,2
2019-01-09T07:08:00.443Z,2
2019-01-09T07:13:00.448Z,2
2019-01-09T07:18:00.483Z,2
2019-01-09T07:23:00.454Z,2
2019-01-09T07:28:00.457Z,2.1
2019-01-09T07:33:00.465Z,2
2019-01-09T07:38:00.426Z,2.1
2019-01-09T07:43:00.467Z,2.1
2019-01-09T07:48:01.415Z,2.1
2019-01-09T07:53:00.468Z,2.1
2019-01-09T07:58:00.474Z,2.1
2019-01-09T08:03:00.498Z,2.1
2019-01-09T08:08:00.487Z,2.1
2019-01-09T08:13:00.481Z,2.2
2019-01-09T08:18:00.482Z,2.2
2019-01-09T08:23:00.469Z,2.2
2019-01-09T08:28:00.491Z,2.2
2019-01-09T08:33:00.478Z,2.3
2019-01-09T08:38:02.826Z,2.3
2019-01-09T08:43:00.506Z,2.3
2019-01-09T08:48:00.504Z,2.3
2019-01-09T08:53:00.513Z,2.3
2019-01-09T08:58:00.507Z,2.3
2019-01-09T09:03:00.516Z,2.3
2019-01-09T09:08:00.521Z,2.3
2019-01-09T09:13:00.522Z,2.3
2019-01-09T09:18:00.516Z,2.4
2019-01-09T09:23:00.521Z,2.5
2019-01-09T09:28:00.524Z,2.4
2019-01-09T09:33:00.595Z,2.5
2019-01-09T09:38:00.529Z,2.4
2019-01-09T09:43:00.528Z,2.5
2019-01-09T09:48:00.531Z,2.4
2019-01-09T09:53:00.554Z,2.5
2019-01-09T09:58:05.529Z,2.5
2019-01-09T10:03:00.532Z,2.4
2019-01-09T10:08:00.695Z,2.4
2019-01-09T10:13:00.544Z,2.4
2019-01-09T10:18:00.547Z,2.4
2019-01-09T10:23:00.549Z,2.4
2019-01-09T10:28:00.566Z,2.3
2019-01-09T10:33:00.562Z,2.3
2019-01-09T10:38:00.547Z,2.4
2019-01-09T10:43:00.602Z,2.4
2019-01-09T10:48:01.670Z,2.4
2019-01-09T10:53:00.577Z,2.3
2019-01-09T10:58:00.572Z,2.3
2019-01-09T11:03:00.582Z,2.3
2019-01-09T11:08:00.572Z,2.2
2019-01-09T11:13:00.596Z,2.2
2019-01-09T11:18:00.595Z,2.2
2019-01-09T11:23:00.598Z,2.2
2019-01-09T11:28:00.598Z,2.2
2019-01-09T11:33:00.604Z,2.2
2019-01-09T11:38:00.592Z,2.1
2019-01-09T11:43:00.618Z,2.1
2019-01-09T11:48:00.615Z,2.1
2019-01-09T11:53:00.616Z,2.1
2019-01-09T11:58:00.615Z,2.1
2019-01-09T12:03:00.640Z,2.1
2019-01-09T12:08:00.624Z,2.1
2019-01-09T12:13:00.636Z,2.1
2019-01-09T12:18:00.633Z,2.1
2019-01-09T12:23:00.633Z,2
2019-01-09T12:28:00.655Z,2.1
2019-01-09T12:33:00.636Z,2.1
2019-01-09T12:38:00.621Z,2
2019-01-09T12:43:00.862Z,2
2019-01-09T12:48:00.588Z,2
2019-01-09T12:53:00.609Z,2.1
2019-01-09T12:58:00.649Z,2.1
2019-01-09T13:03:00.610Z,2.1
2019-01-09T13:08:00.663Z,2.1
2019-01-09T13:13:00.633Z,2.1
2019-01-09T13:18:00.669Z,2.1
2019-01-09T13:23:00.634Z,2.1
2019-01-09T13:28:00.662Z,2.1
2019-01-09T13:33:00.638Z,2
2019-01-09T13:38:00.666Z,2
2019-01-09T13:43:00.635Z,2
2019-01-09T13:48:00.672Z,2
2019-01-09T13:53:00.675Z,1.9
2019-01-09T13:58:00.671Z,1.9
2019-01-09T14:03:00.673Z,1.9
2019-01-09T14:08:00.666Z,1.9
2019-01-09T14:13:00.680Z,1.9
2019-01-09T14:18:00.916Z,1.8
2019-01-09T14:23:00.639Z,1.8
2019-01-09T14:28:01.532Z,1.8
2019-01-09T14:33:00.674Z,1.7
2019-01-09T14:38:00.700Z,1.7
2019-01-09T14:43:00.709Z,1.7
2019-01-09T14:48:00.688Z,1.7
2019-01-09T14:53:00.692Z,1.6
2019-01-09T14:58:00.693Z,1.5
2019-01-09T15:03:00.912Z,1.6
2019-01-09T15:08:00.705Z,1.5
2019-01-09T15:13:00.663Z,1.6
2019-01-09T15:18:00.731Z,1.5
2019-01-09T15:23:00.723Z,1.5
2019-01-09T15:28:00.708Z,1.4
2019-01-09T15:33:00.703Z,1.5
2019-01-09T15:38:00.725Z,1.5
2019-01-09T15:43:00.728Z,1.4
2019-01-09T15:48:00.719Z,1.4
2019-01-09T15:53:00.738Z,1.4
2019-01-09T15:58:00.727Z,1.3
2019-01-09T16:03:00.725Z,1.3
2019-01-09T16:08:00.756Z,1.3
2019-01-09T16:13:00.738Z,1.3
2019-01-09T16:18:00.756Z,1.3
2019-01-09T16:23:00.773Z,1.3
2019-01-09T16:28:00.765Z,1.3
2019-01-09T16:33:00.770Z,1.2
2019-01-09T16:38:00.852Z,1.2
2019-01-09T16:43:00.758Z,1.2
2019-01-09T16:48:00.772Z,1.2
2019-01-09T16:53:00.807Z,1.2
2019-01-09T16:58:01.173Z,1.2
2019-01-09T17:03:03.536Z,1.2
2019-01-09T17:08:00.909Z,1.1
2019-01-09T17:13:00.827Z,1.1
2019-01-09T17:18:00.929Z,1.1
2019-01-09T17:23:01.390Z,1.1
2019-01-09T17:28:01.369Z,1.1
2019-01-09T17:33:01.240Z,1.1
2019-01-09T17:38:00.905Z,1.1
2019-01-09T17:43:01.228Z,1.1
2019-01-09T17:48:00.873Z,1.1
2019-01-09T17:53:01.259Z,1.1
2019-01-09T17:58:00.852Z,1.1
2019-01-09T18:03:00.942Z,1.1
2019-01-09T18:08:01.002Z,1
2019-01-09T18:13:00.816Z,1.1
2019-01-09T18:18:01.006Z,1
2019-01-09T18:23:00.828Z,1
2019-01-09T18:28:01.020Z,1.1
2019-01-09T18:33:00.921Z,1.1
2019-01-09T18:38:00.916Z,1
2019-01-09T18:43:00.848Z,1.1
2019-01-09T18:48:01.038Z,1.1
2019-01-09T18:53:01.485Z,1.1
2019-01-09T18:58:01.235Z,1.1
2019-01-09T19:03:01.554Z,1.1
2019-01-09T19:08:01.490Z,1.1
2019-01-09T19:13:01.316Z,1.1
2019-01-09T19:18:01.257Z,1.1
2019-01-09T19:23:00.847Z,1.1
2019-01-09T19:28:00.893Z,1.1
2019-01-09T19:33:00.890Z,1.1
2019-01-09T19:38:00.843Z,1.1
2019-01-09T19:43:00.894Z,1.1
2019-01-09T19:48:00.867Z,1.1
2019-01-09T19:53:00.907Z,1
2019-01-09T19:58:00.911Z,1.1
2019-01-09T20:03:01.140Z,1.1
2019-01-09T20:08:01.331Z,1
2019-01-09T20:13:02.006Z,1
2019-01-09T20:18:01.382Z,1
2019-01-09T20:23:01.071Z,1
2019-01-09T20:28:02.075Z,1
2019-01-09T20:33:01.371Z,1
2019-01-09T20:38:01.307Z,1
2019-01-09T20:43:01.205Z,0.9
2019-01-09T20:48:01.470Z,1
2019-01-09T20:53:02.511Z,0.9
2019-01-09T20:58:00.936Z,1
2019-01-09T21:03:00.934Z,0.9
2019-01-09T21:08:00.929Z,1
2019-01-09T21:13:00.897Z,1
2019-01-09T21:18:00.962Z,1
2019-01-09T21:23:00.938Z,0.9
2019-01-09T21:28:00.939Z,0.9
2019-01-09T21:33:00.904Z,1
2019-01-09T21:38:00.934Z,0.9
2019-01-09T21:43:00.946Z,0.9
2019-01-09T21:48:00.947Z,0.9
2019-01-09T21:53:00.916Z,0.9
2019-01-09T21:58:01.221Z,0.9
2019-01-09T22:03:00.919Z,0.9
2019-01-09T22:08:00.932Z,0.9
2019-01-09T22:13:01.073Z,0.9
2019-01-09T22:18:00.907Z,0.9
2019-01-09T22:23:01.119Z,0.9
2019-01-09T22:28:00.928Z,0.9
2019-01-09T22:33:00.953Z,0.9
2019-01-09T22:38:00.923Z,0.9
2019-01-09T22:43:00.948Z,0.9
2019-01-09T22:48:00.954Z,0.9
2019-01-09T22:53:00.955Z,0.9
2019-01-09T22:58:00.921Z,0.9
2019-01-09T23:03:00.958Z,0.9
2019-01-09T23:08:00.962Z,0.9
2019-01-09T23:13:00.959Z,0.8
2019-01-09T23:18:00.959Z,0.9
2019-01-09T23:23:00.972Z,0.9
2019-01-09T23:28:00.957Z,0.9
2019-01-09T23:33:00.975Z,0.9
2019-01-09T23:38:00.984Z,0.9
2019-01-09T23:43:00.975Z,0.9
2019-01-09T23:48:01.104Z,0.9
2019-01-09T23:53:00.974Z,0.9
2019-01-09T23:58:00.987Z,0.9
